createdAt,value
2017-08-15T00:01:02.159Z,0
2017-08-15T00:02:12.642Z,0
2017-08-15T00:03:23.115Z,0
2017-08-15T00:04:33.265Z,0
2017-08-15T00:05:43.706Z,0
2017-08-15T00:06:54.407Z,0
2017-08-15T00:08:05.044Z,0
2017-08-15T00:09:15.500Z,0
2017-08-15T00:10:26.065Z,0
2017-08-15T00:11:36.626Z,0
2017-08-15T00:12:47.636Z,0
2017-08-15T00:13:58.150Z,0
2017-08-15T00:15:08.641Z,0
2017-08-15T00:16:19.120Z,0
2017-08-15T00:17:29.602Z,0
2017-08-15T00:18:40.322Z,0
2017-08-15T00:19:50.784Z,0
2017-08-15T00:21:01.242Z,0
2017-08-15T00:22:11.726Z,0
2017-08-15T00:23:22.208Z,0
2017-08-15T00:24:32.926Z,0
2017-08-15T00:25:43.591Z,0
2017-08-15T00:26:54.355Z,0
2017-08-15T00:28:04.486Z,0
2017-08-15T00:29:14.948Z,0
2017-08-15T00:30:25.662Z,0
2017-08-15T00:31:36.380Z,0
2017-08-15T00:32:46.864Z,0
2017-08-15T00:33:57.614Z,0
2017-08-15T00:35:07.820Z,0
2017-08-15T00:36:18.546Z,0
2017-08-15T00:37:28.697Z,0
2017-08-15T00:38:39.228Z,0
2017-08-15T00:39:49.689Z,0
2017-08-15T00:41:01.142Z,0
2017-08-15T00:42:11.526Z,0
2017-08-15T00:43:22.041Z,0
2017-08-15T00:44:33.475Z,0
2017-08-15T00:45:44.330Z,0
2017-08-15T00:46:54.790Z,0
2017-08-15T00:48:05.522Z,0
2017-08-15T00:49:16.002Z,0
2017-08-15T00:50:26.678Z,0
2017-08-15T00:51:36.882Z,0
2017-08-15T00:52:47.067Z,0
2017-08-15T00:53:57.795Z,0
2017-08-15T00:55:08.259Z,0
2017-08-15T00:56:18.724Z,0
2017-08-15T00:57:29.177Z,0
2017-08-15T00:58:39.880Z,0
2017-08-15T00:59:50.353Z,0
2017-08-15T01:01:00.540Z,0
2017-08-15T01:02:11.011Z,0
2017-08-15T01:03:21.472Z,0
2017-08-15T01:04:31.964Z,0
2017-08-15T01:05:42.245Z,0
2017-08-15T01:06:52.725Z,0
2017-08-15T01:08:02.879Z,0
2017-08-15T01:09:13.343Z,0
2017-08-15T01:10:23.828Z,0
2017-08-15T01:11:34.535Z,0
2017-08-15T01:12:44.600Z,0
2017-08-15T01:13:55.296Z,0
2017-08-15T01:15:05.893Z,0
2017-08-15T01:16:16.377Z,0
2017-08-15T01:17:27.084Z,0
2017-08-15T01:18:37.547Z,0
2017-08-15T01:19:48.014Z,0
2017-08-15T01:20:58.473Z,0
2017-08-15T01:22:08.639Z,0
2017-08-15T01:23:19.411Z,0
2017-08-15T01:24:29.939Z,0
2017-08-15T01:25:40.769Z,0
2017-08-15T01:26:51.315Z,0
2017-08-15T01:28:01.785Z,0
2017-08-15T01:29:12.484Z,0
2017-08-15T01:30:22.956Z,0
2017-08-15T01:31:33.627Z,0
2017-08-15T01:32:43.785Z,0
2017-08-15T01:33:54.232Z,0
2017-08-15T01:35:04.974Z,0
2017-08-15T01:36:16.106Z,0
2017-08-15T01:37:26.314Z,0
2017-08-15T01:38:36.767Z,0
2017-08-15T01:39:47.344Z,0
2017-08-15T01:40:58.101Z,0
2017-08-15T01:42:08.586Z,0
2017-08-15T01:43:19.073Z,0
2017-08-15T01:44:29.536Z,0
2017-08-15T01:45:39.986Z,0
2017-08-15T01:46:50.799Z,0
2017-08-15T01:48:00.934Z,0
2017-08-15T01:49:11.458Z,0
2017-08-15T01:50:21.310Z,0
2017-08-15T01:51:31.308Z,0
2017-08-15T01:52:42.060Z,0
2017-08-15T01:53:52.530Z,0
2017-08-15T01:55:03.018Z,0
2017-08-15T01:56:13.494Z,0
2017-08-15T01:57:24.046Z,0
2017-08-15T01:58:34.778Z,0
2017-08-15T01:59:45.345Z,0
2017-08-15T02:00:55.834Z,0
2017-08-15T02:02:06.298Z,0
2017-08-15T02:03:16.766Z,0
2017-08-15T02:04:27.473Z,0
2017-08-15T02:05:38.059Z,0
2017-08-15T02:06:48.523Z,0
2017-08-15T02:07:58.983Z,0
2017-08-15T02:09:09.439Z,0
2017-08-15T02:10:19.919Z,0
2017-08-15T02:11:30.491Z,0
2017-08-15T02:12:40.967Z,0
2017-08-15T02:13:51.472Z,0
2017-08-15T02:15:02.108Z,0
2017-08-15T02:16:12.891Z,0
2017-08-15T02:17:23.345Z,0
2017-08-15T02:18:33.792Z,0
2017-08-15T02:19:44.312Z,0
2017-08-15T02:20:54.782Z,0
2017-08-15T02:22:05.483Z,0
2017-08-15T02:23:15.941Z,0
2017-08-15T02:24:26.458Z,0
2017-08-15T02:25:37.191Z,0
2017-08-15T02:26:47.663Z,0
2017-08-15T02:27:58.207Z,0
2017-08-15T02:29:08.664Z,0
2017-08-15T02:30:19.320Z,0
2017-08-15T02:31:29.082Z,0
2017-08-15T02:32:39.575Z,0
2017-08-15T02:33:50.286Z,0
2017-08-15T02:35:00.767Z,0
2017-08-15T02:36:10.777Z,0
2017-08-15T02:37:21.261Z,0
2017-08-15T02:38:31.780Z,0
2017-08-15T02:39:41.865Z,0
2017-08-15T02:40:51.862Z,0
2017-08-15T02:42:02.311Z,0
2017-08-15T02:43:12.830Z,0
2017-08-15T02:44:23.317Z,0
2017-08-15T02:45:33.772Z,0
2017-08-15T02:46:44.225Z,0
2017-08-15T02:47:54.712Z,0
2017-08-15T02:49:06.327Z,0
2017-08-15T02:50:16.788Z,0
2017-08-15T02:51:27.720Z,0
2017-08-15T02:52:37.889Z,0
2017-08-15T02:53:48.340Z,0
2017-08-15T02:54:58.821Z,0
2017-08-15T02:56:09.263Z,0
2017-08-15T02:57:19.973Z,0
2017-08-15T02:58:30.465Z,0
2017-08-15T02:59:40.939Z,0
2017-08-15T03:00:51.413Z,0
2017-08-15T03:02:01.879Z,0
2017-08-15T03:03:12.597Z,0
2017-08-15T03:04:22.774Z,0
2017-08-15T03:05:33.237Z,0
2017-08-15T03:06:43.703Z,0
2017-08-15T03:07:54.137Z,0
2017-08-15T03:09:05.076Z,0
2017-08-15T03:10:15.524Z,0
2017-08-15T03:11:26.102Z,0
2017-08-15T03:12:36.660Z,0
2017-08-15T03:13:47.133Z,0
2017-08-15T03:14:57.855Z,0
2017-08-15T03:16:08.520Z,0
2017-08-15T03:17:19.056Z,0
2017-08-15T03:18:30.503Z,0
2017-08-15T03:19:40.734Z,0
2017-08-15T03:20:51.485Z,0
2017-08-15T03:22:01.992Z,0
2017-08-15T03:23:11.874Z,0
2017-08-15T03:24:22.339Z,0
2017-08-15T03:25:32.876Z,4
2017-08-15T03:26:43.616Z,0
2017-08-15T03:27:53.808Z,0
2017-08-15T03:29:04.319Z,4
2017-08-15T03:30:14.840Z,4
2017-08-15T03:31:25.330Z,4
2017-08-15T03:32:35.730Z,4
2017-08-15T03:33:46.216Z,4
2017-08-15T03:34:56.743Z,8
2017-08-15T03:36:07.214Z,8
2017-08-15T03:37:18.000Z,8
2017-08-15T03:38:28.741Z,12
2017-08-15T03:39:39.216Z,12
2017-08-15T03:40:49.681Z,16
2017-08-15T03:42:00.119Z,20
2017-08-15T03:43:10.605Z,20
2017-08-15T03:44:21.373Z,24
2017-08-15T03:45:31.817Z,28
2017-08-15T03:46:42.276Z,32
2017-08-15T03:47:52.350Z,32
2017-08-15T03:49:02.765Z,40
2017-08-15T03:50:13.565Z,36
2017-08-15T03:51:24.025Z,32
2017-08-15T03:52:34.417Z,36
2017-08-15T03:53:44.646Z,40
2017-08-15T03:54:55.101Z,40
2017-08-15T03:56:05.217Z,44
2017-08-15T03:57:15.690Z,48
2017-08-15T03:58:26.163Z,44
2017-08-15T03:59:36.312Z,48
2017-08-15T04:00:46.761Z,48
2017-08-15T04:01:57.476Z,52
2017-08-15T04:03:07.971Z,52
2017-08-15T04:04:18.001Z,56
2017-08-15T04:05:28.141Z,60
2017-08-15T04:06:38.280Z,60
2017-08-15T04:07:49.258Z,72
2017-08-15T04:08:59.698Z,84
2017-08-15T04:10:09.834Z,92
2017-08-15T04:11:19.659Z,108
2017-08-15T04:12:30.125Z,112
2017-08-15T04:13:40.948Z,116
2017-08-15T04:14:51.441Z,124
2017-08-15T04:16:01.981Z,124
2017-08-15T04:17:12.519Z,132
2017-08-15T04:18:22.972Z,140
2017-08-15T04:19:33.668Z,152
2017-08-15T04:20:43.838Z,168
2017-08-15T04:21:54.350Z,188
2017-08-15T04:23:04.799Z,212
2017-08-15T04:24:15.303Z,236
2017-08-15T04:25:26.003Z,248
2017-08-15T04:26:36.506Z,264
2017-08-15T04:27:46.636Z,260
2017-08-15T04:28:57.126Z,256
2017-08-15T04:30:07.596Z,252
2017-08-15T04:31:18.024Z,248
2017-08-15T04:32:28.518Z,252
2017-08-15T04:33:39.324Z,264
2017-08-15T04:34:49.853Z,276
2017-08-15T04:36:00.334Z,296
2017-08-15T04:37:11.137Z,312
2017-08-15T04:38:21.578Z,340
2017-08-15T04:39:32.026Z,376
2017-08-15T04:40:42.505Z,388
2017-08-15T04:41:53.101Z,396
2017-08-15T04:43:04.825Z,420
2017-08-15T04:44:15.294Z,444
2017-08-15T04:45:25.759Z,452
2017-08-15T04:46:36.216Z,456
2017-08-15T04:47:46.804Z,468
2017-08-15T04:48:56.962Z,448
2017-08-15T04:50:07.571Z,416
2017-08-15T04:51:18.030Z,408
2017-08-15T04:52:28.583Z,416
2017-08-15T04:53:39.114Z,440
2017-08-15T04:54:49.842Z,488
2017-08-15T04:56:00.299Z,564
2017-08-15T04:57:10.795Z,624
2017-08-15T04:58:21.292Z,604
2017-08-15T04:59:31.884Z,552
2017-08-15T05:00:42.600Z,520
2017-08-15T05:01:53.151Z,516
2017-08-15T05:03:03.635Z,524
2017-08-15T05:04:13.776Z,540
2017-08-15T05:05:24.301Z,544
2017-08-15T05:06:35.056Z,548
2017-08-15T05:07:45.518Z,580
2017-08-15T05:08:56.025Z,608
2017-08-15T05:10:06.486Z,648
2017-08-15T05:11:17.102Z,732
2017-08-15T05:12:28.330Z,848
2017-08-15T05:13:38.831Z,976
2017-08-15T05:14:49.306Z,1108
2017-08-15T05:15:59.747Z,1252
2017-08-15T05:17:10.225Z,1412
2017-08-15T05:18:21.158Z,1576
2017-08-15T05:19:31.613Z,1748
2017-08-15T05:20:41.754Z,1924
2017-08-15T05:21:52.259Z,2116
2017-08-15T05:23:02.417Z,2280
2017-08-15T05:24:13.203Z,2424
2017-08-15T05:25:23.659Z,2508
2017-08-15T05:26:34.096Z,2540
2017-08-15T05:27:44.570Z,2540
2017-08-15T05:28:55.087Z,2516
2017-08-15T05:30:05.822Z,2516
2017-08-15T05:31:16.007Z,2592
2017-08-15T05:32:26.487Z,2708
2017-08-15T05:33:36.949Z,2824
2017-08-15T05:34:47.209Z,2980
2017-08-15T05:35:58.189Z,3268
2017-08-15T05:37:08.488Z,3620
2017-08-15T05:38:19.008Z,3972
2017-08-15T05:39:29.515Z,4336
2017-08-15T05:40:39.987Z,4580
2017-08-15T05:41:50.696Z,4636
2017-08-15T05:43:00.878Z,4828
2017-08-15T05:44:11.049Z,4972
2017-08-15T05:45:21.520Z,4992
2017-08-15T05:46:31.550Z,5080
2017-08-15T05:47:42.271Z,5524
2017-08-15T05:48:52.749Z,5660
2017-08-15T05:50:03.211Z,5912
2017-08-15T05:51:13.696Z,6196
2017-08-15T05:52:24.177Z,6748
2017-08-15T05:53:34.938Z,7224
2017-08-15T05:54:45.470Z,7292
2017-08-15T05:55:55.929Z,6868
2017-08-15T05:57:06.529Z,6632
2017-08-15T05:58:16.718Z,6352
2017-08-15T05:59:27.409Z,6276
2017-08-15T06:00:37.877Z,6396
2017-08-15T06:01:48.363Z,6572
2017-08-15T06:02:58.536Z,6536
2017-08-15T06:04:08.730Z,6536
2017-08-15T06:05:19.473Z,6588
2017-08-15T06:06:29.936Z,6624
2017-08-15T06:07:40.521Z,6584
2017-08-15T06:08:51.233Z,6856
2017-08-15T06:10:01.798Z,6756
2017-08-15T06:11:12.504Z,6616
2017-08-15T06:12:22.976Z,6536
2017-08-15T06:13:33.423Z,6328
2017-08-15T06:14:43.594Z,6148
2017-08-15T06:15:54.300Z,6264
2017-08-15T06:17:05.023Z,5876
2017-08-15T06:18:15.490Z,5648
2017-08-15T06:19:25.354Z,5412
2017-08-15T06:20:35.552Z,5300
2017-08-15T06:21:46.031Z,5340
2017-08-15T06:22:56.754Z,5216
2017-08-15T06:24:07.227Z,4964
2017-08-15T06:25:17.254Z,5112
2017-08-15T06:26:27.818Z,5088
2017-08-15T06:27:38.274Z,4964
2017-08-15T06:28:49.018Z,4976
2017-08-15T06:29:59.499Z,5072
2017-08-15T06:31:10.011Z,4832
2017-08-15T06:32:20.513Z,5056
2017-08-15T06:33:30.659Z,4964
2017-08-15T06:34:40.913Z,5044
2017-08-15T06:35:51.365Z,5128
2017-08-15T06:37:01.584Z,5204
2017-08-15T06:38:12.076Z,5120
2017-08-15T06:39:22.573Z,5588
2017-08-15T06:40:33.313Z,5680
2017-08-15T06:41:43.795Z,5720
2017-08-15T06:42:54.283Z,5848
2017-08-15T06:44:04.758Z,5980
2017-08-15T06:45:15.212Z,6056
2017-08-15T06:46:25.908Z,6132
2017-08-15T06:47:36.423Z,6252
2017-08-15T06:48:46.876Z,6372
2017-08-15T06:50:29.188Z,6600
2017-08-15T06:51:39.293Z,6764
2017-08-15T06:52:49.774Z,6912
2017-08-15T06:54:00.257Z,7028
2017-08-15T06:55:10.405Z,7100
2017-08-15T06:56:20.433Z,7196
2017-08-15T06:57:31.152Z,7348
2017-08-15T06:58:41.699Z,7576
2017-08-15T06:59:52.153Z,7772
2017-08-15T07:01:02.636Z,7948
2017-08-15T07:02:13.084Z,8064
2017-08-15T07:03:23.780Z,8132
2017-08-15T07:04:34.487Z,8116
2017-08-15T07:05:44.952Z,8072
2017-08-15T07:06:55.438Z,8008
2017-08-15T07:08:05.988Z,8012
2017-08-15T07:09:17.450Z,8040
2017-08-15T07:10:27.996Z,8076
2017-08-15T07:11:38.486Z,8168
2017-08-15T07:12:48.640Z,8200
2017-08-15T07:13:59.102Z,8308
2017-08-15T07:15:09.869Z,8388
2017-08-15T07:16:20.343Z,8472
2017-08-15T07:17:30.485Z,8572
2017-08-15T07:18:41.017Z,8672
2017-08-15T07:19:51.168Z,8776
2017-08-15T07:21:01.290Z,8860
2017-08-15T07:22:11.750Z,8864
2017-08-15T07:23:22.200Z,8888
2017-08-15T07:24:32.653Z,8800
2017-08-15T07:25:43.367Z,8756
2017-08-15T07:26:54.136Z,8548
2017-08-15T07:28:04.647Z,8412
2017-08-15T07:29:14.867Z,8180
2017-08-15T07:30:25.534Z,8140
2017-08-15T07:31:35.597Z,8028
2017-08-15T07:32:45.857Z,8120
2017-08-15T07:33:56.331Z,8244
2017-08-15T07:35:06.878Z,8628
2017-08-15T07:36:16.608Z,8800
2017-08-15T07:37:27.094Z,8816
2017-08-15T07:38:38.527Z,9008
2017-08-15T07:39:48.526Z,9248
2017-08-15T07:40:58.668Z,9620
2017-08-15T07:42:09.260Z,9892
2017-08-15T07:43:19.477Z,10124
2017-08-15T07:44:29.561Z,10420
2017-08-15T07:45:40.053Z,10564
2017-08-15T07:46:49.878Z,10496
2017-08-15T07:48:00.370Z,10372
2017-08-15T07:49:11.070Z,10208
2017-08-15T07:50:21.793Z,10596
2017-08-15T07:51:32.244Z,11112
2017-08-15T07:52:42.830Z,11692
2017-08-15T07:53:53.306Z,12340
2017-08-15T07:55:03.771Z,12864
2017-08-15T07:56:13.957Z,13328
2017-08-15T07:57:24.434Z,13968
2017-08-15T07:58:34.949Z,13752
2017-08-15T07:59:45.437Z,12800
2017-08-15T08:00:55.456Z,10256
2017-08-15T08:02:05.878Z,10628
2017-08-15T08:03:16.366Z,10408
2017-08-15T08:04:26.819Z,10780
2017-08-15T08:05:37.299Z,11120
2017-08-15T08:06:47.796Z,11552
2017-08-15T08:07:58.206Z,12132
2017-08-15T08:09:08.347Z,12612
2017-08-15T08:10:18.843Z,12840
2017-08-15T08:11:29.360Z,12468
2017-08-15T08:12:39.944Z,11276
2017-08-15T08:13:50.756Z,11032
2017-08-15T08:15:00.946Z,10004
2017-08-15T08:16:11.701Z,10832
2017-08-15T08:17:22.154Z,11180
2017-08-15T08:18:32.643Z,11012
2017-08-15T08:19:43.347Z,11116
2017-08-15T08:20:53.870Z,11124
2017-08-15T08:22:04.336Z,11404
2017-08-15T08:23:14.485Z,11748
2017-08-15T08:24:25.033Z,12088
2017-08-15T08:25:35.747Z,12324
2017-08-15T08:26:46.233Z,12824
2017-08-15T08:27:56.709Z,13440
2017-08-15T08:29:07.402Z,13712
2017-08-15T08:30:17.861Z,13748
2017-08-15T08:31:28.271Z,13588
2017-08-15T08:32:38.736Z,16268
2017-08-15T08:33:49.208Z,18688
2017-08-15T08:34:59.675Z,17600
2017-08-15T08:36:10.185Z,18528
2017-08-15T08:37:20.957Z,18848
2017-08-15T08:38:31.143Z,18944
2017-08-15T08:39:41.318Z,20000
2017-08-15T08:40:51.761Z,20640
2017-08-15T08:42:02.247Z,27936
2017-08-15T08:43:13.030Z,53504
2017-08-15T08:44:23.783Z,53632
2017-08-15T08:45:34.258Z,68800
2017-08-15T08:46:44.769Z,78880
2017-08-15T08:47:55.281Z,70752
2017-08-15T08:49:05.673Z,77536
2017-08-15T08:50:15.719Z,73760
2017-08-15T08:51:26.206Z,62400
2017-08-15T08:52:36.660Z,67712
2017-08-15T08:53:47.141Z,62144
2017-08-15T08:54:57.897Z,69952
2017-08-15T08:56:08.140Z,69056
2017-08-15T08:57:18.661Z,50688
2017-08-15T08:58:28.896Z,66976
2017-08-15T08:59:39.422Z,70464
2017-08-15T09:00:50.230Z,57216
2017-08-15T09:02:01.683Z,71328
2017-08-15T09:03:12.171Z,81120
2017-08-15T09:04:22.632Z,81696
2017-08-15T09:05:32.934Z,85280
2017-08-15T09:06:43.729Z,69664
2017-08-15T09:07:54.209Z,73536
2017-08-15T09:09:04.400Z,74688
2017-08-15T09:10:14.886Z,77792
2017-08-15T09:11:25.376Z,92000
2017-08-15T09:12:35.838Z,70176
2017-08-15T09:13:46.321Z,69216
2017-08-15T09:14:56.944Z,90752
2017-08-15T09:16:07.116Z,85888
2017-08-15T09:17:17.754Z,86880
2017-08-15T09:18:28.155Z,91840
2017-08-15T09:19:38.903Z,58560
2017-08-15T09:20:49.522Z,46272
2017-08-15T09:22:00.060Z,68128
2017-08-15T09:23:10.533Z,73248
2017-08-15T09:24:21.289Z,93344
2017-08-15T09:25:31.761Z,62592
2017-08-15T09:26:42.259Z,64640
2017-08-15T09:27:53.419Z,89344
2017-08-15T09:29:04.120Z,85696
2017-08-15T09:30:14.557Z,64864
2017-08-15T09:31:25.031Z,60800
2017-08-15T09:32:35.544Z,69216
2017-08-15T09:33:46.250Z,84320
2017-08-15T09:34:56.515Z,85696
2017-08-15T09:36:07.242Z,91104
2017-08-15T09:37:17.754Z,100960
2017-08-15T09:38:27.951Z,90848
2017-08-15T09:39:38.457Z,92928
2017-08-15T09:40:48.976Z,92192
2017-08-15T09:41:59.614Z,70592
2017-08-15T09:43:09.664Z,74080
2017-08-15T09:44:19.845Z,91008
2017-08-15T09:45:30.382Z,86112
2017-08-15T09:46:41.002Z,74272
2017-08-15T09:47:51.735Z,66016
2017-08-15T09:49:02.233Z,82400
2017-08-15T09:50:12.719Z,89216
2017-08-15T09:51:23.311Z,52160
2017-08-15T09:52:33.815Z,39424
2017-08-15T09:53:44.545Z,63712
2017-08-15T09:54:55.044Z,56320
2017-08-15T09:56:05.619Z,77760
2017-08-15T09:57:16.142Z,86528
2017-08-15T09:58:26.826Z,90176
2017-08-15T09:59:37.789Z,79616
2017-08-15T10:00:48.543Z,75680
2017-08-15T10:01:59.048Z,83872
2017-08-15T10:03:09.166Z,76256
2017-08-15T10:04:19.871Z,92832
2017-08-15T10:05:30.593Z,101760
2017-08-15T10:06:40.628Z,91424
2017-08-15T10:07:50.817Z,109824
2017-08-15T10:09:02.275Z,117504
2017-08-15T10:10:12.778Z,104224
2017-08-15T10:11:23.595Z,100352
2017-08-15T10:12:35.105Z,98528
2017-08-15T10:13:45.166Z,99008
2017-08-15T10:15:01.098Z,102496
2017-08-15T10:16:11.302Z,93312
2017-08-15T10:17:22.049Z,96160
2017-08-15T10:18:31.919Z,100480
2017-08-15T10:19:42.105Z,99808
2017-08-15T10:20:52.620Z,107520
2017-08-15T10:22:03.015Z,112384
2017-08-15T10:23:13.309Z,104672
2017-08-15T10:24:24.001Z,108864
2017-08-15T10:25:34.700Z,106336
2017-08-15T10:26:45.279Z,88384
2017-08-15T10:27:55.927Z,95328
2017-08-15T10:29:06.671Z,109952
2017-08-15T10:30:17.326Z,99520
2017-08-15T10:31:27.811Z,104224
2017-08-15T10:32:37.999Z,115680
2017-08-15T10:33:48.154Z,101536
2017-08-15T10:34:58.904Z,89792
2017-08-15T10:36:09.422Z,95136
2017-08-15T10:37:19.927Z,106720
2017-08-15T10:38:30.443Z,120576
2017-08-15T10:39:41.146Z,116864
2017-08-15T10:40:51.886Z,90176
2017-08-15T10:42:02.431Z,77760
2017-08-15T10:43:13.135Z,101120
2017-08-15T10:44:23.632Z,127680
2017-08-15T10:45:34.274Z,135872
2017-08-15T10:46:45.016Z,112544
2017-08-15T10:47:55.595Z,87040
2017-08-15T10:49:06.133Z,80384
2017-08-15T10:50:16.614Z,89376
2017-08-15T10:51:27.082Z,101184
2017-08-15T10:52:37.571Z,113952
2017-08-15T10:53:48.112Z,120320
2017-08-15T10:54:58.604Z,105728
2017-08-15T10:56:08.845Z,87232
2017-08-15T10:57:19.436Z,89920
2017-08-15T10:58:30.177Z,106208
2017-08-15T10:59:40.342Z,108352
2017-08-15T11:00:50.825Z,90944
2017-08-15T11:02:01.317Z,82816
2017-08-15T11:03:11.825Z,93248
2017-08-15T11:04:22.589Z,101120
2017-08-15T11:05:32.784Z,104672
2017-08-15T11:06:43.327Z,123552
2017-08-15T11:07:53.854Z,127328
2017-08-15T11:09:04.342Z,106688
2017-08-15T11:10:15.158Z,99264
2017-08-15T11:11:25.843Z,89344
2017-08-15T11:12:35.704Z,95872
2017-08-15T11:13:46.242Z,111616
2017-08-15T11:14:56.724Z,122624
2017-08-15T11:16:07.509Z,125568
2017-08-15T11:17:18.042Z,122272
2017-08-15T11:18:28.810Z,107264
2017-08-15T11:19:39.323Z,91520
2017-08-15T11:20:49.826Z,95328
2017-08-15T11:22:00.585Z,106656
2017-08-15T11:23:11.150Z,102624
2017-08-15T11:24:21.639Z,98208
2017-08-15T11:25:32.104Z,109568
2017-08-15T11:26:42.728Z,106368
2017-08-15T11:27:53.534Z,85024
2017-08-15T11:29:04.061Z,98048
2017-08-15T11:30:14.284Z,134656
2017-08-15T11:31:24.786Z,134816
2017-08-15T11:32:35.302Z,106080
2017-08-15T11:33:46.027Z,90976
2017-08-15T11:34:56.576Z,87904
2017-08-15T11:36:06.795Z,88000
2017-08-15T11:37:17.283Z,99200
2017-08-15T11:38:27.786Z,106048
2017-08-15T11:39:38.542Z,109088
2017-08-15T11:40:49.022Z,116608
2017-08-15T11:41:59.526Z,103808
2017-08-15T11:43:10.060Z,80064
2017-08-15T11:44:20.551Z,77760
2017-08-15T11:45:31.359Z,79808
2017-08-15T11:46:41.879Z,63776
2017-08-15T11:47:52.362Z,59264
2017-08-15T11:49:02.850Z,76416
2017-08-15T11:50:13.361Z,83584
2017-08-15T11:51:23.801Z,68992
2017-08-15T11:52:34.546Z,71616
2017-08-15T11:53:45.989Z,104992
2017-08-15T11:54:56.484Z,105760
2017-08-15T11:56:06.759Z,77536
2017-08-15T11:57:17.748Z,70528
2017-08-15T11:58:28.258Z,89280
2017-08-15T11:59:38.754Z,111968
2017-08-15T12:00:49.272Z,109440
2017-08-15T12:01:59.750Z,92416
2017-08-15T12:03:10.461Z,95680
2017-08-15T12:04:20.945Z,96544
2017-08-15T12:05:31.047Z,88672
2017-08-15T12:06:41.573Z,96640
2017-08-15T12:07:51.731Z,99776
2017-08-15T12:09:02.502Z,83552
2017-08-15T12:10:12.997Z,70464
2017-08-15T12:11:23.595Z,66784
2017-08-15T12:12:33.817Z,60928
2017-08-15T12:13:44.015Z,54560
2017-08-15T12:14:54.806Z,68608
2017-08-15T12:16:04.646Z,80384
2017-08-15T12:17:15.150Z,73088
2017-08-15T12:18:24.574Z,60608
2017-08-15T12:19:35.061Z,63680
2017-08-15T12:20:45.474Z,58528
2017-08-15T12:21:55.934Z,62208
2017-08-15T12:23:06.136Z,54720
2017-08-15T12:24:16.671Z,52992
2017-08-15T12:25:27.181Z,49472
2017-08-15T12:26:38.033Z,58080
2017-08-15T12:27:48.558Z,54176
2017-08-15T12:28:58.864Z,57952
2017-08-15T12:30:09.487Z,49184
2017-08-15T12:31:20.249Z,55936
2017-08-15T12:32:31.284Z,61280
2017-08-15T12:33:41.778Z,62336
2017-08-15T12:34:52.252Z,57440
2017-08-15T12:36:02.760Z,53696
2017-08-15T12:37:13.268Z,58048
2017-08-15T12:38:24.093Z,32064
2017-08-15T12:39:34.590Z,71360
2017-08-15T12:40:45.104Z,67872
2017-08-15T12:41:55.790Z,60128
2017-08-15T12:43:06.270Z,55200
2017-08-15T12:44:17.261Z,57472
2017-08-15T12:45:27.752Z,59904
2017-08-15T12:46:38.240Z,50304
2017-08-15T12:47:48.741Z,48512
2017-08-15T12:48:59.216Z,49888
2017-08-15T12:50:09.773Z,52576
2017-08-15T12:51:21.271Z,42400
2017-08-15T12:52:31.749Z,37824
2017-08-15T12:53:42.231Z,34496
2017-08-15T12:54:52.740Z,25120
2017-08-15T12:56:04.454Z,26144
2017-08-15T12:57:14.936Z,55744
2017-08-15T12:58:25.506Z,60608
2017-08-15T12:59:35.980Z,49376
2017-08-15T13:00:46.467Z,40928
2017-08-15T13:01:57.422Z,42432
2017-08-15T13:03:07.884Z,32320
2017-08-15T13:04:18.363Z,31104
2017-08-15T13:05:28.878Z,32064
2017-08-15T13:06:39.342Z,33088
2017-08-15T13:07:50.096Z,35680
2017-08-15T13:09:00.618Z,39232
2017-08-15T13:10:11.106Z,42656
2017-08-15T13:11:21.281Z,49664
2017-08-15T13:12:31.544Z,56928
2017-08-15T13:13:42.269Z,60736
2017-08-15T13:14:52.454Z,56128
2017-08-15T13:16:02.949Z,52576
2017-08-15T13:17:13.663Z,57024
2017-08-15T13:18:24.127Z,63328
2017-08-15T13:19:34.878Z,51296
2017-08-15T13:20:45.039Z,36512
2017-08-15T13:21:55.534Z,36320
2017-08-15T13:23:06.345Z,38848
2017-08-15T13:24:17.037Z,41280
2017-08-15T13:25:27.807Z,54208
2017-08-15T13:26:38.444Z,77216
2017-08-15T13:27:48.597Z,67744
2017-08-15T13:28:58.448Z,56832
2017-08-15T13:30:09.245Z,42752
2017-08-15T13:31:19.569Z,51968
2017-08-15T13:32:30.048Z,70080
2017-08-15T13:33:40.533Z,64576
2017-08-15T13:34:51.088Z,53824
2017-08-15T13:36:02.544Z,63456
2017-08-15T13:37:13.079Z,66976
2017-08-15T13:38:23.611Z,63008
2017-08-15T13:39:34.088Z,59360
2017-08-15T13:40:44.589Z,21024
2017-08-15T13:41:54.789Z,42048
2017-08-15T13:43:05.516Z,34976
2017-08-15T13:44:16.297Z,29504
2017-08-15T13:45:26.452Z,20416
2017-08-15T13:46:36.923Z,31520
2017-08-15T13:47:47.475Z,25600
2017-08-15T13:48:58.209Z,21312
2017-08-15T13:50:08.913Z,25632
2017-08-15T13:51:19.074Z,16896
2017-08-15T13:52:29.625Z,16608
2017-08-15T13:53:40.112Z,15968
2017-08-15T13:54:50.846Z,14552
2017-08-15T13:56:01.325Z,14680
2017-08-15T13:57:11.836Z,14592
2017-08-15T13:58:22.311Z,15392
2017-08-15T13:59:32.367Z,22688
2017-08-15T14:00:43.104Z,37504
2017-08-15T14:01:53.631Z,60160
2017-08-15T14:03:04.162Z,69664
2017-08-15T14:04:14.427Z,73184
2017-08-15T14:05:24.308Z,67776
2017-08-15T14:06:35.063Z,56224
2017-08-15T14:07:45.584Z,65216
2017-08-15T14:08:56.104Z,68800
2017-08-15T14:10:06.568Z,60448
2017-08-15T14:11:17.122Z,60768
2017-08-15T14:12:27.870Z,53120
2017-08-15T14:13:38.091Z,49088
2017-08-15T14:14:48.154Z,52992
2017-08-15T14:15:58.658Z,62048
2017-08-15T14:17:09.182Z,48448
2017-08-15T14:18:19.938Z,45472
2017-08-15T14:19:30.432Z,50912
2017-08-15T14:20:40.923Z,47040
2017-08-15T14:21:51.397Z,47872
2017-08-15T14:23:01.756Z,51648
2017-08-15T14:24:12.203Z,32544
2017-08-15T14:25:22.737Z,47680
2017-08-15T14:26:33.208Z,55200
2017-08-15T14:27:43.704Z,57024
2017-08-15T14:28:54.207Z,54048
2017-08-15T14:30:04.940Z,47840
2017-08-15T14:31:15.632Z,53280
2017-08-15T14:32:26.118Z,38080
2017-08-15T14:33:36.607Z,52288
2017-08-15T14:34:47.138Z,43680
2017-08-15T14:35:57.904Z,48384
2017-08-15T14:37:08.112Z,41920
2017-08-15T14:38:18.696Z,46048
2017-08-15T14:39:29.208Z,45536
2017-08-15T14:40:39.688Z,45376
2017-08-15T14:41:50.434Z,47392
2017-08-15T14:43:00.944Z,47072
2017-08-15T14:44:11.150Z,42496
2017-08-15T14:45:21.246Z,43168
2017-08-15T14:46:31.749Z,51328
2017-08-15T14:47:42.511Z,46176
2017-08-15T14:48:52.706Z,40352
2017-08-15T14:50:03.198Z,40384
2017-08-15T14:51:13.266Z,40064
2017-08-15T14:52:23.746Z,39072
2017-08-15T14:53:34.483Z,28928
2017-08-15T14:54:44.701Z,34688
2017-08-15T14:55:54.860Z,35424
2017-08-15T14:57:05.424Z,20064
2017-08-15T14:58:15.906Z,14860
2017-08-15T14:59:26.651Z,13892
2017-08-15T15:00:37.184Z,13788
2017-08-15T15:01:47.678Z,14344
2017-08-15T15:02:58.233Z,14240
2017-08-15T15:04:08.753Z,15040
2017-08-15T15:05:19.519Z,17056
2017-08-15T15:06:30.002Z,22080
2017-08-15T15:07:40.544Z,27168
2017-08-15T15:08:51.034Z,27552
2017-08-15T15:10:01.573Z,28672
2017-08-15T15:11:12.009Z,16832
2017-08-15T15:12:22.040Z,15296
2017-08-15T15:13:32.546Z,13648
2017-08-15T15:14:42.613Z,12360
2017-08-15T15:15:53.110Z,11608
2017-08-15T15:17:03.844Z,11484
2017-08-15T15:18:14.016Z,11928
2017-08-15T15:19:24.652Z,13480
2017-08-15T15:20:35.473Z,14276
2017-08-15T15:21:45.967Z,15424
2017-08-15T15:22:56.749Z,29824
2017-08-15T15:24:07.225Z,32736
2017-08-15T15:25:17.436Z,19872
2017-08-15T15:26:27.394Z,20256
2017-08-15T15:27:38.052Z,18048
2017-08-15T15:28:48.832Z,16960
2017-08-15T15:29:59.370Z,16960
2017-08-15T15:31:09.873Z,20224
2017-08-15T15:32:20.403Z,16640
2017-08-15T15:33:30.915Z,24640
2017-08-15T15:34:41.731Z,23520
2017-08-15T15:35:52.077Z,17888
2017-08-15T15:37:02.578Z,15712
2017-08-15T15:38:14.043Z,15456
2017-08-15T15:39:24.536Z,16000
2017-08-15T15:40:35.199Z,14252
2017-08-15T15:41:45.829Z,14456
2017-08-15T15:42:56.397Z,13556
2017-08-15T15:44:06.930Z,12440
2017-08-15T15:45:17.439Z,11760
2017-08-15T15:46:28.547Z,10748
2017-08-15T15:47:39.349Z,10420